Time;durP1;ratioP1;P1;durP2;ratioP2;P2;SDS_P1;SDS_P2;PMS_P1;PMS_P2;Temp;Humidity;BMP_temperature;BMP_pressure;BME280_temperature;BME280_humidity;BME280_pressure;Samples;Min_cycle;Max_cycle;Signal;HPM_P1;HPM_P2
2023/03/20 00:01:56;;;;;;;;;;;9.00;99.90;;;;;;5072819;28;19956;-63
2023/03/20 00:04:21;;;;;;;;;;;9.00;99.90;;;;;;5075868;28;19947;-62
2023/03/20 00:06:47;;;;;;;;;;;9.00;99.90;;;;;;5093035;28;19912;-61
2023/03/20 00:09:12;;;;;;;;;;;9.00;99.90;;;;;;5093766;28;19908;-61
2023/03/20 00:11:56;;;;;;;;;;;8.90;99.90;;;;;;5093547;28;19915;-60
2023/03/20 00:14:23;;;;;;;;;;;9.00;99.90;;;;;;5092948;28;19912;-60
2023/03/20 00:16:49;;;;;;;;;;;9.00;99.90;;;;;;5093723;28;19999;-60
2023/03/20 00:19:16;;;;;;;;;;;8.90;99.90;;;;;;5087548;28;19942;-60
2023/03/20 00:21:42;;;;;;;;;;;8.90;99.90;;;;;;5090478;28;19924;-59
2023/03/20 00:24:07;;;;;;;;;;;8.90;99.90;;;;;;5092787;28;19922;-59
2023/03/20 00:26:34;;;;;;;;;;;8.90;99.90;;;;;;5093043;28;20298;-59
2023/03/20 00:29:00;;;;;;;;;;;8.90;99.90;;;;;;5092318;28;19961;-58
2023/03/20 00:31:25;;;;;;;;;;;8.90;99.90;;;;;;5092287;28;20325;-59
2023/03/20 00:33:52;;;;;;;;;;;8.80;99.90;;;;;;5092455;28;20359;-59
2023/03/20 00:36:17;;;;;;;;;;;8.80;99.90;;;;;;5092347;28;19919;-60
2023/03/20 00:38:43;;;;;;;;;;;8.80;99.90;;;;;;5093039;28;19908;-61
2023/03/20 00:41:23;;;;;;;;;;;8.80;99.90;;;;;;5087727;28;20392;-57
2023/03/20 00:43:51;;;;;;;;;;;8.70;99.90;;;;;;5092252;28;20010;-61
2023/03/20 00:46:17;;;;;;;;;;;8.80;99.90;;;;;;5093026;28;20389;-61
2023/03/20 00:48:42;;;;;;;;;;;8.70;99.90;;;;;;5093027;28;20011;-61
2023/03/20 00:51:08;;;;;;;;;;;8.70;99.90;;;;;;5092199;28;19958;-61
2023/03/20 00:53:33;;;;;;;;;;;8.70;99.90;;;;;;5085461;28;19972;-62
2023/03/20 00:55:59;;;;;;;;;;;8.70;99.90;;;;;;5092463;28;19916;-62
2023/03/20 00:58:25;;;;;;;;;;;8.60;99.90;;;;;;5092964;28;19919;-62
2023/03/20 01:00:51;;;;;;;;;;;8.60;99.90;;;;;;5092740;28;19924;-62
2023/03/20 01:03:20;;;;;;;;;;;8.60;99.90;;;;;;5092251;28;19912;-62
2023/03/20 01:05:48;;;;;;;;;;;8.60;99.90;;;;;;5091983;28;20302;-62
2023/03/20 01:08:17;;;;;;;;;;;8.60;99.90;;;;;;5092770;28;19908;-62
2023/03/20 01:10:43;;;;;;;;;;;8.60;99.90;;;;;;5091921;28;19962;-62
2023/03/20 01:13:15;;;;;;;;;;;8.60;99.90;;;;;;5092671;28;20282;-61
2023/03/20 01:15:41;;;;;;;;;;;8.60;99.90;;;;;;5092662;28;19908;-62
2023/03/20 01:18:08;;;;;;;;;;;8.60;99.90;;;;;;5091832;28;20336;-62
2023/03/20 01:20:34;;;;;;;;;;;8.60;99.90;;;;;;5092525;28;19916;-61
2023/03/20 01:22:59;;;;;;;;;;;8.60;99.90;;;;;;5092682;28;19914;-62
2023/03/20 01:25:25;;;;;;;;;;;8.60;99.90;;;;;;5091928;28;19933;-62
2023/03/20 01:27:52;;;;;;;;;;;8.60;99.90;;;;;;5092310;28;20014;-62
2023/03/20 01:30:22;;;;;;;;;;;8.60;99.90;;;;;;5092169;28;19920;-62
2023/03/20 01:32:47;;;;;;;;;;;8.50;99.90;;;;;;5091551;28;19908;-62
2023/03/20 01:35:15;;;;;;;;;;;8.60;99.90;;;;;;5092581;28;20382;-62
2023/03/20 01:37:41;;;;;;;;;;;8.50;99.90;;;;;;5085168;28;19912;-62
2023/03/20 01:40:32;;;;;;;;;;;8.60;99.90;;;;;;5091643;28;19924;-62
2023/03/20 01:42:58;;;;;;;;;;;8.50;99.90;;;;;;5072356;28;19917;-63
2023/03/20 01:45:28;;;;;;;;;;;8.50;99.90;;;;;;5095529;28;20292;-62
2023/03/20 01:47:53;;;;;;;;;;;8.50;99.90;;;;;;5096280;28;19935;-63
2023/03/20 01:50:28;;;;;;;;;;;8.50;99.90;;;;;;5096522;28;20351;-62
2023/03/20 01:53:14;;;;;;;;;;;8.50;99.90;;;;;;5095703;28;20302;-62
2023/03/20 01:55:40;;;;;;;;;;;8.50;99.90;;;;;;5095541;28;19915;-62
2023/03/20 01:58:08;;;;;;;;;;;8.50;99.90;;;;;;5096334;28;19923;-62
2023/03/20 02:00:35;;;;;;;;;;;8.50;99.90;;;;;;5095155;28;19920;-62
2023/03/20 02:03:01;;;;;;;;;;;8.50;99.90;;;;;;5096460;28;19918;-62
2023/03/20 02:05:27;;;;;;;;;;;8.50;99.90;;;;;;5096091;28;19908;-62
2023/03/20 02:08:01;;;;;;;;;;;8.50;99.90;;;;;;5095282;28;19915;-62
2023/03/20 02:10:27;;;;;;;;;;;8.50;99.90;;;;;;5095871;28;19938;-63
2023/03/20 02:12:53;;;;;;;;;;;8.50;99.90;;;;;;5095963;28;19999;-62
2023/03/20 02:15:19;;;;;;;;;;;8.50;99.90;;;;;;5095145;28;19914;-62
2023/03/20 02:17:45;;;;;;;;;;;8.50;99.90;;;;;;5095877;28;19995;-62
2023/03/20 02:20:13;;;;;;;;;;;8.50;99.90;;;;;;5095808;28;19923;-62
2023/03/20 02:22:55;;;;;;;;;;;8.50;99.90;;;;;;5095106;28;20366;-62
2023/03/20 02:25:42;;;;;;;;;;;8.50;99.90;;;;;;5094294;28;19908;-62
2023/03/20 02:28:32;;;;;;;;;;;8.50;99.90;;;;;;5095054;28;20006;-62
2023/03/20 02:31:12;;;;;;;;;;;8.40;99.90;;;;;;5096001;28;19916;-62
2023/03/20 02:33:38;;;;;;;;;;;8.40;99.90;;;;;;5094568;28;20003;-62
2023/03/20 02:36:03;;;;;;;;;;;8.40;99.90;;;;;;5088114;28;19999;-62
2023/03/20 02:38:42;;;;;;;;;;;8.40;99.90;;;;;;5078783;28;19915;-62
2023/03/20 02:41:08;;;;;;;;;;;8.50;99.90;;;;;;5095609;28;20015;-62
2023/03/20 02:43:33;;;;;;;;;;;8.40;99.90;;;;;;5094104;28;19986;-62
2023/03/20 02:45:59;;;;;;;;;;;8.40;99.90;;;;;;5095290;28;19908;-62
2023/03/20 02:48:30;;;;;;;;;;;8.40;99.90;;;;;;5093568;28;19912;-62
2023/03/20 02:51:08;;;;;;;;;;;8.50;99.90;;;;;;5076857;28;19997;-62
2023/03/20 02:53:56;;;;;;;;;;;8.50;99.90;;;;;;5094426;28;19912;-63
2023/03/20 02:56:35;;;;;;;;;;;8.40;99.90;;;;;;5094594;28;20007;-63
2023/03/20 02:59:05;;;;;;;;;;;8.40;99.90;;;;;;5095059;28;19915;-62
2023/03/20 03:01:33;;;;;;;;;;;8.40;99.90;;;;;;5089850;28;19999;-63
2023/03/20 03:04:01;;;;;;;;;;;8.40;99.90;;;;;;5094268;28;19987;-63
2023/03/20 03:06:29;;;;;;;;;;;8.40;99.90;;;;;;5094917;28;19908;-62
2023/03/20 03:09:03;;;;;;;;;;;8.40;99.90;;;;;;5094807;28;20007;-62
2023/03/20 03:11:31;;;;;;;;;;;8.40;99.90;;;;;;5094411;28;19962;-62
2023/03/20 03:13:57;;;;;;;;;;;8.40;99.90;;;;;;5094924;28;19908;-62
2023/03/20 03:16:25;;;;;;;;;;;8.40;99.90;;;;;;5095178;28;19908;-61
2023/03/20 03:18:55;;;;;;;;;;;8.40;99.90;;;;;;5094009;28;19908;-62
2023/03/20 03:21:21;;;;;;;;;;;8.50;99.90;;;;;;5094566;28;19920;-62
2023/03/20 03:23:47;;;;;;;;;;;8.40;99.90;;;;;;5093735;28;20304;-61
2023/03/20 03:26:17;;;;;;;;;;;8.40;99.90;;;;;;5094617;28;19998;-62
2023/03/20 03:28:44;;;;;;;;;;;8.40;99.90;;;;;;5094411;28;19951;-62
2023/03/20 03:31:12;;;;;;;;;;;8.40;99.90;;;;;;5093606;28;19908;-62
2023/03/20 03:33:39;;;;;;;;;;;8.40;99.90;;;;;;5094321;28;19908;-63
2023/03/20 03:36:15;;;;;;;;;;;8.40;99.90;;;;;;5094373;28;19915;-62
2023/03/20 03:38:59;;;;;;;;;;;8.40;99.90;;;;;;5082612;28;20371;-62
2023/03/20 03:41:33;;;;;;;;;;;8.40;99.90;;;;;;5074044;28;20334;-62
2023/03/20 03:44:08;;;;;;;;;;;8.40;99.90;;;;;;5083209;28;19912;-64
2023/03/20 03:46:34;;;;;;;;;;;8.50;99.90;;;;;;5093119;28;19912;-62
2023/03/20 03:49:01;;;;;;;;;;;8.40;99.90;;;;;;5093999;28;20402;-63
2023/03/20 03:51:31;;;;;;;;;;;8.40;99.90;;;;;;5093364;28;20333;-64
2023/03/20 03:54:19;;;;;;;;;;;8.40;99.90;;;;;;5093629;28;20406;-62
2023/03/20 03:56:46;;;;;;;;;;;8.40;99.90;;;;;;5093827;28;19998;-62
2023/03/20 03:59:26;;;;;;;;;;;8.40;99.90;;;;;;5093211;28;19923;-62
2023/03/20 04:01:53;;;;;;;;;;;8.50;99.90;;;;;;5093377;28;19983;-63
2023/03/20 04:04:19;;;;;;;;;;;8.40;99.90;;;;;;5092977;28;19972;-62
2023/03/20 04:06:45;;;;;;;;;;;8.40;99.90;;;;;;5092694;28;19912;-63
2023/03/20 04:09:10;;;;;;;;;;;8.40;99.90;;;;;;5093263;28;19912;-62
2023/03/20 04:11:36;;;;;;;;;;;8.40;99.90;;;;;;5093622;28;19912;-62
2023/03/20 04:14:01;;;;;;;;;;;8.40;99.90;;;;;;5092888;28;19973;-62
2023/03/20 04:16:27;;;;;;;;;;;8.40;99.90;;;;;;5087875;28;19911;-63
2023/03/20 04:18:55;;;;;;;;;;;8.40;99.90;;;;;;5075323;28;20282;-63
2023/03/20 04:21:20;;;;;;;;;;;8.50;99.90;;;;;;5092795;28;19934;-63
2023/03/20 04:23:46;;;;;;;;;;;8.40;99.90;;;;;;5093664;28;19912;-62
2023/03/20 04:26:12;;;;;;;;;;;8.40;99.90;;;;;;5093117;28;20003;-63
2023/03/20 04:28:37;;;;;;;;;;;8.40;99.90;;;;;;5092485;28;19909;-63
2023/03/20 04:31:03;;;;;;;;;;;8.40;99.90;;;;;;5093497;28;19915;-62
2023/03/20 04:33:28;;;;;;;;;;;8.40;99.90;;;;;;5093308;28;19998;-62
2023/03/20 04:35:54;;;;;;;;;;;8.40;99.90;;;;;;5092504;28;20339;-62
2023/03/20 04:38:21;;;;;;;;;;;8.30;99.90;;;;;;5093463;28;20331;-62
2023/03/20 04:40:47;;;;;;;;;;;8.40;99.90;;;;;;5093135;28;20367;-62
2023/03/20 04:43:13;;;;;;;;;;;8.30;99.90;;;;;;5092558;28;19908;-62
2023/03/20 04:45:39;;;;;;;;;;;8.30;99.90;;;;;;5093030;28;19919;-63
2023/03/20 04:48:04;;;;;;;;;;;8.30;99.90;;;;;;5092354;28;19931;-62
2023/03/20 04:50:30;;;;;;;;;;;8.30;99.90;;;;;;5092971;28;19961;-63
2023/03/20 04:52:56;;;;;;;;;;;8.30;99.90;;;;;;5092839;28;19909;-63
2023/03/20 04:55:21;;;;;;;;;;;8.30;99.90;;;;;;5092270;28;20484;-63
2023/03/20 04:57:47;;;;;;;;;;;8.30;99.90;;;;;;5092992;28;19912;-63
2023/03/20 05:00:13;;;;;;;;;;;8.30;99.90;;;;;;5092848;28;19920;-64
2023/03/20 05:02:38;;;;;;;;;;;8.30;99.90;;;;;;5073496;28;19931;-63
2023/03/20 05:05:04;;;;;;;;;;;8.30;99.90;;;;;;5076985;28;19912;-63
2023/03/20 05:07:30;;;;;;;;;;;8.30;99.90;;;;;;5084547;28;20041;-63
2023/03/20 05:09:55;;;;;;;;;;;8.30;99.90;;;;;;5078030;28;20374;-63
2023/03/20 05:12:21;;;;;;;;;;;8.30;99.90;;;;;;5092443;28;19916;-63
2023/03/20 05:14:47;;;;;;;;;;;8.30;99.90;;;;;;5086275;28;20302;-63
2023/03/20 05:17:12;;;;;;;;;;;8.30;99.90;;;;;;5091208;28;19935;-63
2023/03/20 05:19:38;;;;;;;;;;;8.20;99.90;;;;;;5096696;28;19924;-62
2023/03/20 05:22:03;;;;;;;;;;;8.30;99.90;;;;;;5096543;28;19918;-64
2023/03/20 05:24:30;;;;;;;;;;;8.30;99.90;;;;;;5095840;28;19965;-63
2023/03/20 05:26:55;;;;;;;;;;;8.20;99.90;;;;;;5096661;28;19965;-63
2023/03/20 05:29:21;;;;;;;;;;;8.20;99.90;;;;;;5096667;28;19915;-63
2023/03/20 05:31:46;;;;;;;;;;;8.20;99.90;;;;;;5095845;28;19912;-63
2023/03/20 05:34:12;;;;;;;;;;;8.20;99.90;;;;;;5095613;28;19953;-63
2023/03/20 05:36:38;;;;;;;;;;;8.20;99.90;;;;;;5093933;28;19969;-63
2023/03/20 05:39:04;;;;;;;;;;;8.20;99.90;;;;;;5093338;28;19916;-63
2023/03/20 05:41:29;;;;;;;;;;;8.20;99.90;;;;;;5076258;28;19908;-63
2023/03/20 05:43:55;;;;;;;;;;;8.20;99.90;;;;;;5076369;28;19962;-62
2023/03/20 05:46:21;;;;;;;;;;;8.20;99.90;;;;;;5076113;28;19908;-63
2023/03/20 05:48:47;;;;;;;;;;;8.20;99.90;;;;;;5096401;28;19909;-63
2023/03/20 05:51:12;;;;;;;;;;;8.20;99.90;;;;;;5096364;28;20042;-64
2023/03/20 05:53:38;;;;;;;;;;;8.20;99.90;;;;;;5095525;28;19965;-63
2023/03/20 05:56:03;;;;;;;;;;;8.20;99.90;;;;;;5096505;28;20006;-63
2023/03/20 05:58:29;;;;;;;;;;;8.20;99.90;;;;;;5095436;28;19919;-63
2023/03/20 06:00:55;;;;;;;;;;;8.20;99.90;;;;;;5095892;28;19920;-63
2023/03/20 06:03:21;;;;;;;;;;;8.20;99.90;;;;;;5096246;28;19952;-64
2023/03/20 06:05:46;;;;;;;;;;;8.20;99.90;;;;;;5095197;28;19952;-63
2023/03/20 06:08:12;;;;;;;;;;;8.20;99.90;;;;;;5096092;28;19914;-64
2023/03/20 06:10:37;;;;;;;;;;;8.20;99.90;;;;;;5095919;28;19908;-63
2023/03/20 06:13:03;;;;;;;;;;;8.20;99.90;;;;;;5090293;28;20063;-64
2023/03/20 06:15:28;;;;;;;;;;;8.20;99.90;;;;;;5094527;28;20390;-63
2023/03/20 06:17:54;;;;;;;;;;;8.20;99.90;;;;;;5099795;28;19915;-63
2023/03/20 06:20:20;;;;;;;;;;;8.20;99.90;;;;;;5100346;28;19916;-63
2023/03/20 06:22:45;;;;;;;;;;;8.20;99.90;;;;;;5091530;28;20366;-63
2023/03/20 06:25:11;;;;;;;;;;;8.20;99.90;;;;;;5095108;28;19977;-63
2023/03/20 06:27:36;;;;;;;;;;;8.30;99.90;;;;;;5097628;28;20316;-67
2023/03/20 06:30:02;;;;;;;;;;;8.30;99.90;;;;;;5097791;28;20252;-66
2023/03/20 06:32:27;;;;;;;;;;;8.30;99.90;;;;;;5093288;28;20010;-67
2023/03/20 06:34:53;;;;;;;;;;;8.30;99.90;;;;;;5098742;28;19963;-66
2023/03/20 06:37:19;;;;;;;;;;;8.30;99.90;;;;;;5098009;28;20018;-66
2023/03/20 06:39:45;;;;;;;;;;;8.40;99.90;;;;;;5098326;28;20009;-68
2023/03/20 06:42:11;;;;;;;;;;;8.40;99.90;;;;;;5088734;28;20376;-68
2023/03/20 06:44:37;;;;;;;;;;;8.50;99.90;;;;;;5098168;28;19923;-66
2023/03/20 06:47:03;;;;;;;;;;;8.50;99.90;;;;;;5100676;28;20007;-67
2023/03/20 06:49:28;;;;;;;;;;;8.50;99.90;;;;;;5106079;28;19915;-67
2023/03/20 06:51:54;;;;;;;;;;;8.50;99.90;;;;;;5106205;28;19928;-66
2023/03/20 06:54:20;;;;;;;;;;;8.50;99.90;;;;;;5095252;28;19923;-68
2023/03/20 06:56:45;;;;;;;;;;;8.60;99.90;;;;;;5095518;28;19912;-67
2023/03/20 06:59:11;;;;;;;;;;;8.60;99.90;;;;;;5096367;28;19953;-67
2023/03/20 07:01:37;;;;;;;;;;;8.60;99.90;;;;;;5093912;28;19920;-68
2023/03/20 07:04:02;;;;;;;;;;;8.60;99.90;;;;;;5076261;28;19973;-67
2023/03/20 07:06:28;;;;;;;;;;;8.60;99.90;;;;;;5073827;28;19912;-65
2023/03/20 07:08:53;;;;;;;;;;;8.60;99.90;;;;;;5055285;28;20386;-67
2023/03/20 07:11:19;;;;;;;;;;;8.70;99.90;;;;;;5065580;28;19917;-67
2023/03/20 07:13:44;;;;;;;;;;;8.70;99.90;;;;;;5057722;28;19974;-66
2023/03/20 07:16:10;;;;;;;;;;;8.70;99.90;;;;;;5055578;28;19927;-68
2023/03/20 07:18:36;;;;;;;;;;;8.70;99.90;;;;;;5074181;28;19909;-65
2023/03/20 07:21:03;;;;;;;;;;;8.70;99.90;;;;;;5057794;28;20011;-66
2023/03/20 07:23:29;;;;;;;;;;;8.70;99.90;;;;;;5053877;28;19916;-67
2023/03/20 07:25:55;;;;;;;;;;;8.70;99.90;;;;;;5054443;28;19915;-67
2023/03/20 07:28:20;;;;;;;;;;;8.70;99.90;;;;;;5054307;28;20271;-67
2023/03/20 07:30:46;;;;;;;;;;;8.70;99.90;;;;;;5053419;28;19909;-66
2023/03/20 07:33:12;;;;;;;;;;;8.70;99.90;;;;;;5054119;28;20394;-67
2023/03/20 07:35:38;;;;;;;;;;;8.70;99.90;;;;;;5063630;28;19966;-66
2023/03/20 07:38:04;;;;;;;;;;;8.80;99.90;;;;;;5070898;28;19912;-67
2023/03/20 07:40:30;;;;;;;;;;;8.80;99.90;;;;;;5063208;28;20333;-66
2023/03/20 07:42:56;;;;;;;;;;;8.80;99.90;;;;;;5074126;28;19915;-66
2023/03/20 07:45:21;;;;;;;;;;;8.90;99.90;;;;;;5073006;28;19908;-66
2023/03/20 07:47:47;;;;;;;;;;;8.90;99.90;;;;;;5073692;28;20423;-66
2023/03/20 07:50:13;;;;;;;;;;;8.90;99.90;;;;;;5073556;28;19908;-66
2023/03/20 07:52:39;;;;;;;;;;;8.90;99.90;;;;;;5072815;28;20283;-67
2023/03/20 07:55:05;;;;;;;;;;;8.90;99.90;;;;;;5073715;28;19963;-66
2023/03/20 07:57:30;;;;;;;;;;;8.90;99.90;;;;;;5073496;28;20049;-66
2023/03/20 07:59:55;;;;;;;;;;;9.00;99.90;;;;;;5072650;28;19917;-65
2023/03/20 08:02:21;;;;;;;;;;;9.00;99.90;;;;;;5089553;28;19921;-65
2023/03/20 08:04:46;;;;;;;;;;;9.00;99.90;;;;;;5093594;28;20402;-66
2023/03/20 08:07:12;;;;;;;;;;;9.10;99.90;;;;;;5092027;28;19915;-66
2023/03/20 08:09:37;;;;;;;;;;;9.10;99.90;;;;;;5084060;28;19912;-66
2023/03/20 08:12:04;;;;;;;;;;;9.20;99.90;;;;;;5079894;28;20356;-64
2023/03/20 08:14:29;;;;;;;;;;;9.30;99.90;;;;;;5077821;28;19916;-67
2023/03/20 08:16:55;;;;;;;;;;;9.30;99.90;;;;;;5080473;28;20007;-66
2023/03/20 08:19:20;;;;;;;;;;;9.30;99.90;;;;;;5062538;28;20074;-67
2023/03/20 08:21:46;;;;;;;;;;;9.30;99.90;;;;;;5072288;28;19916;-65
2023/03/20 08:24:11;;;;;;;;;;;9.30;99.90;;;;;;5079475;28;19919;-66
2023/03/20 08:26:37;;;;;;;;;;;9.30;99.90;;;;;;5070511;28;19926;-66
2023/03/20 08:29:02;;;;;;;;;;;9.30;99.90;;;;;;5078037;28;20390;-67
2023/03/20 08:31:28;;;;;;;;;;;9.30;99.90;;;;;;5072665;28;20333;-66
2023/03/20 08:33:54;;;;;;;;;;;9.40;99.90;;;;;;5070817;28;20372;-67
2023/03/20 08:36:20;;;;;;;;;;;9.40;99.90;;;;;;5071534;28;19909;-65
2023/03/20 08:38:46;;;;;;;;;;;9.40;99.90;;;;;;5071389;28;19912;-67
2023/03/20 08:41:12;;;;;;;;;;;9.40;99.90;;;;;;5070855;28;20417;-67
2023/03/20 08:43:38;;;;;;;;;;;9.50;99.90;;;;;;5073065;28;20027;-65
2023/03/20 08:46:04;;;;;;;;;;;9.50;99.90;;;;;;5078339;28;19995;-65
2023/03/20 08:48:30;;;;;;;;;;;9.50;99.90;;;;;;5076833;28;19916;-66
2023/03/20 08:50:55;;;;;;;;;;;9.60;99.90;;;;;;5073953;28;19916;-65
2023/03/20 08:53:21;;;;;;;;;;;9.70;99.90;;;;;;5073893;28;20343;-65
2023/03/20 08:55:47;;;;;;;;;;;9.80;99.90;;;;;;5080648;28;19915;-67
2023/03/20 08:58:13;;;;;;;;;;;9.80;99.90;;;;;;5073528;28;19958;-64
2023/03/20 09:00:38;;;;;;;;;;;9.90;99.90;;;;;;5073124;28;19940;-65
2023/03/20 09:03:04;;;;;;;;;;;10.00;99.90;;;;;;5076019;28;19952;-65
2023/03/20 09:05:30;;;;;;;;;;;10.00;99.90;;;;;;5083484;28;20285;-64
2023/03/20 09:07:55;;;;;;;;;;;10.00;99.90;;;;;;5076373;28;19920;-65
2023/03/20 09:10:21;;;;;;;;;;;10.00;99.90;;;;;;5089965;28;19908;-66
2023/03/20 09:12:46;;;;;;;;;;;10.10;99.90;;;;;;5085828;28;19916;-66
2023/03/20 09:15:12;;;;;;;;;;;10.10;99.90;;;;;;5075532;28;19920;-67
2023/03/20 09:17:37;;;;;;;;;;;10.10;99.90;;;;;;5074376;28;20010;-65
2023/03/20 09:20:03;;;;;;;;;;;10.10;99.90;;;;;;5073228;28;20058;-65
2023/03/20 09:22:28;;;;;;;;;;;10.10;99.90;;;;;;5072684;28;20271;-65
2023/03/20 09:24:54;;;;;;;;;;;10.10;99.90;;;;;;5079916;28;19913;-66
2023/03/20 09:27:20;;;;;;;;;;;10.10;99.90;;;;;;5072522;28;20378;-65
2023/03/20 09:29:45;;;;;;;;;;;10.20;99.90;;;;;;5080392;28;19916;-64
2023/03/20 09:32:11;;;;;;;;;;;10.30;99.90;;;;;;5073144;28;19916;-64
2023/03/20 09:34:37;;;;;;;;;;;10.30;99.90;;;;;;5080999;28;19916;-66
2023/03/20 09:37:03;;;;;;;;;;;10.40;99.90;;;;;;5079615;28;20343;-64
2023/03/20 09:39:28;;;;;;;;;;;10.50;99.90;;;;;;5093168;28;19942;-66
2023/03/20 09:41:58;;;;;;;;;;;10.60;99.90;;;;;;5093396;28;19912;-65
2023/03/20 09:44:35;;;;;;;;;;;10.70;99.90;;;;;;5090940;28;19914;-66
2023/03/20 09:47:26;;;;;;;;;;;10.90;99.90;;;;;;5072573;28;19919;-65
2023/03/20 09:50:04;;;;;;;;;;;11.00;99.90;;;;;;5054604;28;19916;-66
2023/03/20 09:52:39;;;;;;;;;;;11.00;99.90;;;;;;5075823;28;20421;-65
2023/03/20 09:55:16;;;;;;;;;;;11.10;99.90;;;;;;5072779;28;19970;-66
2023/03/20 09:57:44;;;;;;;;;;;11.20;99.90;;;;;;5072314;28;20029;-65
2023/03/20 10:00:10;;;;;;;;;;;11.30;99.90;;;;;;5072624;28;19920;-65
2023/03/20 10:02:39;;;;;;;;;;;11.20;99.90;;;;;;5074543;28;20352;-66
2023/03/20 10:05:11;;;;;;;;;;;11.30;99.90;;;;;;5075932;28;20007;-64
2023/03/20 10:07:37;;;;;;;;;;;11.30;99.90;;;;;;5084239;28;19939;-65
2023/03/20 10:10:03;;;;;;;;;;;11.40;99.90;;;;;;5087712;28;20417;-65
2023/03/20 10:12:47;;;;;;;;;;;11.60;99.90;;;;;;5079591;28;19966;-63
2023/03/20 10:15:19;;;;;;;;;;;11.60;99.90;;;;;;5090339;28;20351;-64
2023/03/20 10:17:47;;;;;;;;;;;11.50;99.90;;;;;;5087158;28;19919;-64
2023/03/20 10:20:21;;;;;;;;;;;11.50;99.90;;;;;;5082558;28;19959;-63
2023/03/20 10:22:50;;;;;;;;;;;11.60;99.90;;;;;;5076535;28;19932;-63
2023/03/20 10:25:18;;;;;;;;;;;11.60;99.90;;;;;;5076397;28;19912;-61
2023/03/20 10:27:49;;;;;;;;;;;11.60;99.50;;;;;;5075409;28;19954;-65
2023/03/20 10:30:24;;;;;;;;;;;11.50;99.90;;;;;;5084418;28;19995;-65
2023/03/20 10:33:01;;;;;;;;;;;11.60;99.90;;;;;;5075205;28;20429;-63
2023/03/20 10:35:30;;;;;;;;;;;11.60;99.90;;;;;;5076373;28;19964;-63
2023/03/20 10:38:19;;;;;;;;;;;11.60;99.90;;;;;;5076249;28;19999;-64
2023/03/20 10:40:45;;;;;;;;;;;11.50;99.90;;;;;;5075465;28;19927;-64
2023/03/20 10:43:18;;;;;;;;;;;11.40;99.90;;;;;;5079479;28;19912;-64
2023/03/20 10:45:47;;;;;;;;;;;11.30;99.90;;;;;;5092030;28;19923;-65
2023/03/20 10:48:19;;;;;;;;;;;11.20;99.90;;;;;;5083580;28;20255;-62
2023/03/20 10:50:48;;;;;;;;;;;11.10;99.90;;;;;;5078074;28;20328;-61
2023/03/20 10:53:25;;;;;;;;;;;11.00;99.90;;;;;;5075457;28;19939;-62
2023/03/20 10:55:54;;;;;;;;;;;10.90;99.90;;;;;;5074807;28;19919;-63
2023/03/20 10:58:25;;;;;;;;;;;10.90;99.90;;;;;;5080434;28;19923;-63
2023/03/20 11:00:53;;;;;;;;;;;11.00;99.90;;;;;;5074517;28;19921;-64
2023/03/20 11:03:23;;;;;;;;;;;10.90;99.90;;;;;;5079839;28;19912;-64
2023/03/20 11:05:52;;;;;;;;;;;10.90;99.90;;;;;;5075151;28;19927;-63
2023/03/20 11:08:21;;;;;;;;;;;10.80;99.90;;;;;;5074940;28;19922;-63
2023/03/20 11:10:55;;;;;;;;;;;10.80;99.90;;;;;;5077283;28;19982;-64
2023/03/20 11:13:24;;;;;;;;;;;10.80;99.90;;;;;;5085556;28;19909;-62
2023/03/20 11:15:51;;;;;;;;;;;10.70;99.90;;;;;;5085921;28;19971;-65
2023/03/20 11:18:16;;;;;;;;;;;10.70;99.90;;;;;;5087218;28;19920;-64
2023/03/20 11:20:50;;;;;;;;;;;10.60;99.90;;;;;;5092547;28;19920;-62
2023/03/20 11:23:18;;;;;;;;;;;10.50;99.90;;;;;;5063156;28;20345;-63
2023/03/20 11:25:46;;;;;;;;;;;10.60;99.90;;;;;;5087152;28;19935;-62
2023/03/20 11:28:24;;;;;;;;;;;10.50;99.90;;;;;;5085708;28;19953;-64
2023/03/20 11:30:50;;;;;;;;;;;10.40;99.90;;;;;;5091419;28;19947;-64
2023/03/20 11:33:15;;;;;;;;;;;10.30;99.90;;;;;;5082432;28;19963;-66
2023/03/20 11:35:45;;;;;;;;;;;10.40;99.90;;;;;;5090093;28;19948;-63
2023/03/20 11:38:19;;;;;;;;;;;10.40;99.90;;;;;;5084593;28;19947;-64
2023/03/20 11:40:47;;;;;;;;;;;10.40;99.90;;;;;;5081147;28;19927;-65
2023/03/20 11:43:23;;;;;;;;;;;10.40;99.90;;;;;;5079692;28;19912;-63
2023/03/20 11:45:55;;;;;;;;;;;10.50;99.90;;;;;;5078991;28;19958;-64
2023/03/20 11:48:22;;;;;;;;;;;10.50;99.90;;;;;;5074183;28;19912;-64
2023/03/20 11:51:14;;;;;;;;;;;10.40;99.90;;;;;;5084965;28;19962;-66
2023/03/20 11:53:46;;;;;;;;;;;10.50;99.90;;;;;;5088265;28;19916;-65
2023/03/20 11:56:20;;;;;;;;;;;10.50;99.90;;;;;;5087056;28;19912;-64
2023/03/20 11:58:49;;;;;;;;;;;10.40;99.90;;;;;;5092704;28;19915;-64
2023/03/20 12:01:14;;;;;;;;;;;10.40;99.90;;;;;;5093578;28;19919;-64
2023/03/20 12:03:42;;;;;;;;;;;10.40;99.90;;;;;;5092989;28;19953;-65
2023/03/20 12:06:13;;;;;;;;;;;10.30;99.90;;;;;;5087495;28;19919;-66
2023/03/20 12:08:39;;;;;;;;;;;10.30;99.90;;;;;;5087010;28;20378;-66
2023/03/20 12:11:16;;;;;;;;;;;10.20;99.90;;;;;;5075989;28;19909;-66
2023/03/20 12:13:43;;;;;;;;;;;10.20;99.90;;;;;;5089249;28;20015;-64
2023/03/20 12:16:14;;;;;;;;;;;10.20;99.90;;;;;;5093122;28;20006;-64
2023/03/20 12:18:42;;;;;;;;;;;10.30;99.90;;;;;;5093255;28;19919;-67
2023/03/20 12:21:19;;;;;;;;;;;10.40;99.90;;;;;;5079091;28;19920;-65
2023/03/20 12:23:51;;;;;;;;;;;10.40;99.90;;;;;;5088367;28;19918;-64
2023/03/20 12:26:23;;;;;;;;;;;10.50;99.90;;;;;;5083056;28;20393;-63
2023/03/20 12:28:53;;;;;;;;;;;10.50;99.90;;;;;;5079611;28;20363;-62
2023/03/20 12:31:34;;;;;;;;;;;10.50;99.90;;;;;;5084487;28;19912;-65
2023/03/20 12:34:12;;;;;;;;;;;10.60;99.90;;;;;;5092233;28;20002;-65
2023/03/20 12:36:40;;;;;;;;;;;10.60;99.90;;;;;;5100112;28;19908;-62
2023/03/20 12:39:10;;;;;;;;;;;10.60;99.90;;;;;;5099459;28;19915;-63
2023/03/20 12:41:54;;;;;;;;;;;10.50;99.90;;;;;;5100041;28;20298;-63
2023/03/20 12:44:25;;;;;;;;;;;10.40;99.90;;;;;;5099559;28;19959;-65
2023/03/20 12:46:56;;;;;;;;;;;10.30;99.90;;;;;;5100390;28;20352;-65
2023/03/20 12:49:41;;;;;;;;;;;10.30;99.90;;;;;;5103593;28;20271;-62
2023/03/20 12:52:10;;;;;;;;;;;10.20;99.90;;;;;;5090450;28;19942;-64
2023/03/20 12:54:35;;;;;;;;;;;10.20;99.90;;;;;;5092012;28;19926;-65
2023/03/20 12:57:17;;;;;;;;;;;10.20;99.90;;;;;;5104224;28;20278;-67
2023/03/20 12:59:48;;;;;;;;;;;10.30;99.90;;;;;;5067566;28;19913;-65
2023/03/20 13:02:20;;;;;;;;;;;10.40;99.90;;;;;;5071061;28;20423;-65
2023/03/20 13:04:52;;;;;;;;;;;10.30;99.90;;;;;;5073351;28;19909;-66
2023/03/20 13:07:19;;;;;;;;;;;10.40;99.90;;;;;;5073706;28;19963;-65
2023/03/20 13:09:56;;;;;;;;;;;10.30;99.90;;;;;;5072506;28;19916;-66
2023/03/20 13:12:27;;;;;;;;;;;10.20;99.90;;;;;;5072714;28;19991;-66
2023/03/20 13:15:01;;;;;;;;;;;10.20;99.90;;;;;;5071967;28;19944;-68
2023/03/20 13:17:40;;;;;;;;;;;10.00;99.90;;;;;;5061672;28;20248;-66
2023/03/20 13:20:05;;;;;;;;;;;10.00;99.90;;;;;;5080300;28;19924;-66
2023/03/20 13:22:35;;;;;;;;;;;9.90;99.90;;;;;;5088704;28;19954;-69
2023/03/20 13:25:01;;;;;;;;;;;9.80;99.90;;;;;;5092845;28;19914;-68
2023/03/20 13:27:32;;;;;;;;;;;9.80;99.90;;;;;;5092891;28;19912;-67
2023/03/20 13:30:05;;;;;;;;;;;9.80;99.90;;;;;;5091193;28;20367;-68
2023/03/20 13:32:37;;;;;;;;;;;9.90;99.90;;;;;;5092739;28;19915;-69
2023/03/20 13:35:08;;;;;;;;;;;9.90;99.90;;;;;;5092285;28;19912;-68
2023/03/20 13:37:36;;;;;;;;;;;9.80;99.90;;;;;;5094179;28;19908;-70
2023/03/20 13:40:10;;;;;;;;;;;9.70;99.90;;;;;;5096416;28;19916;-68
2023/03/20 13:42:38;;;;;;;;;;;9.70;99.90;;;;;;5097302;28;19908;-69
2023/03/20 13:45:18;;;;;;;;;;;9.60;99.90;;;;;;5097689;28;19943;-68
2023/03/20 13:47:45;;;;;;;;;;;9.60;99.90;;;;;;5079900;28;20607;-69
2023/03/20 13:50:25;;;;;;;;;;;9.60;99.90;;;;;;5075290;28;19913;-69
2023/03/20 13:52:56;;;;;;;;;;;9.60;99.90;;;;;;5076486;28;19916;-67
2023/03/20 13:55:31;;;;;;;;;;;9.50;99.90;;;;;;5076070;28;20272;-71
2023/03/20 13:57:56;;;;;;;;;;;9.40;99.90;;;;;;5076283;28;19985;-66
2023/03/20 14:00:22;;;;;;;;;;;9.40;99.90;;;;;;5087416;28;20365;-68
2023/03/20 14:03:13;;;;;;;;;;;9.40;99.90;;;;;;5075171;28;20337;-67
2023/03/20 14:05:39;;;;;;;;;;;9.40;99.90;;;;;;5074265;28;19913;-69
2023/03/20 14:08:20;;;;;;;;;;;9.50;99.90;;;;;;5080708;28;19920;-69
2023/03/20 14:10:45;;;;;;;;;;;9.50;99.90;;;;;;5081301;28;19912;-68
2023/03/20 14:13:16;;;;;;;;;;;9.50;99.90;;;;;;5086995;28;19915;-68
2023/03/20 14:15:53;;;;;;;;;;;9.50;99.90;;;;;;5095513;28;19908;-68
2023/03/20 14:18:20;;;;;;;;;;;9.40;99.90;;;;;;5076153;28;20435;-68
2023/03/20 14:21:00;;;;;;;;;;;9.40;99.90;;;;;;5078579;28;19920;-69
2023/03/20 14:23:31;;;;;;;;;;;9.50;99.90;;;;;;5096809;28;19916;-68
2023/03/20 14:25:58;;;;;;;;;;;9.50;99.90;;;;;;5096266;28;19908;-69
2023/03/20 14:28:26;;;;;;;;;;;9.40;99.90;;;;;;5096641;28;19908;-67
2023/03/20 14:31:10;;;;;;;;;;;9.50;99.90;;;;;;5096630;28;19908;-69
2023/03/20 14:33:41;;;;;;;;;;;9.50;99.90;;;;;;5095546;28;19909;-68
2023/03/20 14:36:29;;;;;;;;;;;9.40;99.90;;;;;;5093627;28;20356;-68